Leonardo Da Vinci (Fiumicino) International Airport LIRF

Flugplatz Daten

Name: Leonardo Da Vinci (Fiumicino) International Airport

Ident: LIRF

Lat: 41,80450058

Long: 12,25080013

Platzhöhe: 15 ft

IataCode: FCO

City: Rome

Homepage: http://www.adr.it/portal/portal/adr/Fiumicino/Leonardo_da_vinci/Header_Window?action=2

Metar

2022/08/13 17:20
LIRF 131720Z 27007KT CAVOK 25/21 Q1010 NOSIG

Taf

2022/08/13 12:00
TAF LIRF 131100Z 1312/1418 22012KT 9999 FEW040
TEMPO 1314/1318 SHRA FEW020CB
BECMG 1319/1321 28010KT
BECMG 1400/1402 02006KT
BECMG 1408/1410 23010KT
Gewünschte Webcam nicht vorhanden? Dann fügen Sie eine hinzu. Sie wird dann so schnell wie möglich freigeschaltet
Url: Title: